Time;durP1;ratioP1;P1;durP2;ratioP2;P2;SDS_P1;SDS_P2;PMS_P1;PMS_P2;Temp;Humidity;BMP_temperature;BMP_pressure;BME280_temperature;BME280_humidity;BME280_pressure;Samples;Min_cycle;Max_cycle;Signal;HPM_P1;HPM_P2
2022/09/14 00:01:21;;;;;;;3.85;1.00;;;14.40;99.90;;;;;;5033854;28;20202;-77
2022/09/14 00:03:52;;;;;;;2.83;1.60;;;14.40;99.90;;;;;;5033355;28;20285;-77
2022/09/14 00:06:19;;;;;;;2.27;1.07;;;14.40;99.90;;;;;;5033219;28;20219;-77
2022/09/14 00:08:49;;;;;;;1.07;0.73;;;14.30;99.90;;;;;;5029812;28;20210;-77
2022/09/14 00:11:16;;;;;;;1.27;0.77;;;14.40;99.90;;;;;;5027505;28;20208;-77
2022/09/14 00:13:45;;;;;;;1.77;0.97;;;14.30;99.90;;;;;;5023797;28;20297;-77
2022/09/14 00:16:15;;;;;;;2.28;1.05;;;14.30;99.90;;;;;;5030023;28;20214;-77
2022/09/14 00:18:43;;;;;;;2.00;1.20;;;14.30;99.90;;;;;;5032615;28;20202;-77
2022/09/14 00:21:11;;;;;;;1.63;1.10;;;14.30;99.90;;;;;;5032172;28;20245;-77
2022/09/14 00:23:40;;;;;;;2.53;1.40;;;14.30;99.90;;;;;;5030650;28;20199;-77
2022/09/14 00:26:09;;;;;;;1.20;0.90;;;14.30;99.90;;;;;;5031964;28;20222;-77
2022/09/14 00:28:40;;;;;;;1.95;1.02;;;14.30;99.90;;;;;;5033108;28;20214;-77
2022/09/14 00:31:08;;;;;;;2.20;1.40;;;14.30;99.90;;;;;;5033334;28;20210;-77
2022/09/14 00:33:35;;;;;;;3.20;1.20;;;14.30;99.90;;;;;;5032287;28;20209;-76
2022/09/14 00:36:11;;;;;;;2.15;1.08;;;14.40;99.90;;;;;;5033346;28;20234;-77
2022/09/14 00:38:39;;;;;;;2.43;1.17;;;14.40;99.90;;;;;;5033106;28;20198;-77
2022/09/14 00:41:08;;;;;;;1.97;0.87;;;14.40;99.90;;;;;;5031908;28;20790;-77
2022/09/14 00:43:51;;;;;;;1.40;0.90;;;14.40;99.90;;;;;;5033203;28;20198;-76
2022/09/14 00:46:18;;;;;;;1.13;1.02;;;14.40;99.90;;;;;;5031643;28;20240;-77
2022/09/14 00:48:45;;;;;;;1.20;0.90;;;14.40;99.90;;;;;;5032931;28;20300;-77
2022/09/14 00:51:15;;;;;;;2.63;1.20;;;14.40;99.90;;;;;;5032923;28;20288;-78
2022/09/14 00:53:42;;;;;;;3.65;0.90;;;14.40;99.90;;;;;;5031311;28;20603;-78
2022/09/14 00:56:09;;;;;;;3.17;0.93;;;14.40;99.90;;;;;;5032643;28;20235;-77
2022/09/14 00:58:35;;;;;;;1.03;0.80;;;14.40;99.90;;;;;;5031966;28;20206;-78
2022/09/14 01:01:02;;;;;;;1.70;0.75;;;14.40;99.90;;;;;;5031949;28;20583;-78
2022/09/14 01:03:29;;;;;;;1.40;0.90;;;14.50;99.90;;;;;;5032314;28;20202;-78
2022/09/14 01:06:05;;;;;;;1.10;0.80;;;14.40;99.90;;;;;;5032274;28;20267;-77
2022/09/14 01:08:46;;;;;;;2.42;1.00;;;14.40;99.90;;;;;;5031161;28;20208;-77
2022/09/14 01:11:25;;;;;;;0.93;0.80;;;14.40;99.90;;;;;;5031972;28;20210;-77
2022/09/14 01:14:03;;;;;;;1.77;0.85;;;14.40;99.90;;;;;;5031946;28;20207;-77
2022/09/14 01:16:36;;;;;;;1.58;0.68;;;14.40;99.90;;;;;;5032087;28;20225;-78
2022/09/14 01:19:09;;;;;;;1.98;0.85;;;14.40;99.90;;;;;;5032640;28;20237;-77
2022/09/14 01:21:39;;;;;;;2.00;1.00;;;14.40;99.90;;;;;;5031259;28;20212;-76
2022/09/14 01:24:16;;;;;;;1.27;0.87;;;14.40;99.90;;;;;;5032617;28;20209;-77
2022/09/14 01:27:16;;;;;;;2.63;1.20;;;14.40;99.90;;;;;;5031990;28;20212;-77
2022/09/14 01:29:48;;;;;;;1.67;1.05;;;14.30;99.90;;;;;;5030999;28;20230;-77
2022/09/14 01:32:19;;;;;;;2.28;1.30;;;14.30;99.90;;;;;;5032305;28;20186;-77
2022/09/14 01:34:52;;;;;;;1.20;1.00;;;14.30;99.90;;;;;;5031666;28;20293;-77
2022/09/14 01:37:22;;;;;;;2.03;1.43;;;14.30;99.90;;;;;;5031041;28;20203;-77
2022/09/14 01:39:56;;;;;;;2.77;1.27;;;14.20;99.90;;;;;;5031509;28;20199;-78
2022/09/14 01:42:27;;;;;;;2.47;1.10;;;14.20;99.90;;;;;;5032010;28;20190;-77
2022/09/14 01:45:01;;;;;;;2.57;1.10;;;14.20;99.90;;;;;;5031569;28;20182;-77
2022/09/14 01:47:34;;;;;;;3.43;1.40;;;14.10;99.90;;;;;;5031514;28;20214;-77
2022/09/14 01:50:07;;;;;;;2.17;1.20;;;14.10;99.90;;;;;;5030745;28;20194;-79
2022/09/14 01:52:40;;;;;;;2.20;1.10;;;14.10;99.90;;;;;;5031964;28;20277;-78
2022/09/14 01:55:13;;;;;;;2.10;0.90;;;14.10;99.90;;;;;;5031716;28;20203;-78
2022/09/14 01:57:44;;;;;;;1.97;1.13;;;14.10;99.90;;;;;;5030927;28;20226;-77
2022/09/14 02:00:16;;;;;;;2.67;1.13;;;14.00;99.90;;;;;;5031920;28;20218;-78
2022/09/14 02:02:47;;;;;;;1.10;1.00;;;14.00;99.90;;;;;;5031805;28;20233;-77
2022/09/14 02:05:20;;;;;;;2.27;1.07;;;14.00;99.90;;;;;;5030971;28;20281;-78
2022/09/14 02:07:47;;;;;;;1.70;1.30;;;14.10;99.90;;;;;;5031759;28;20214;-78
2022/09/14 02:10:16;;;;;;;2.03;1.10;;;14.10;99.90;;;;;;5031173;28;20208;-77
2022/09/14 02:12:43;;;;;;;2.63;0.90;;;14.10;99.90;;;;;;5031075;28;20198;-77
2022/09/14 02:15:14;;;;;;;3.07;1.10;;;14.10;99.90;;;;;;5031218;28;20211;-77
2022/09/14 02:17:41;;;;;;;3.43;1.30;;;14.10;99.90;;;;;;5031298;28;20584;-76
2022/09/14 02:20:14;;;;;;;1.30;1.00;;;14.10;99.90;;;;;;5031148;28;20486;-77
2022/09/14 02:22:41;;;;;;;1.17;0.90;;;14.10;99.90;;;;;;5031617;28;20201;-78
2022/09/14 02:25:08;;;;;;;1.47;0.80;;;14.10;99.90;;;;;;5030989;28;20237;-77
2022/09/14 02:27:35;;;;;;;4.50;1.47;;;14.10;99.90;;;;;;5031112;28;20684;-78
2022/09/14 02:30:02;;;;;;;2.03;1.00;;;14.20;99.90;;;;;;5030623;28;20226;-77
2022/09/14 02:32:38;;;;;;;1.43;1.00;;;14.20;99.90;;;;;;5031076;28;20289;-77
2022/09/14 02:35:15;;;;;;;1.53;1.00;;;14.20;99.90;;;;;;5031558;28;20183;-78
2022/09/14 02:37:53;;;;;;;1.30;1.17;;;14.20;99.90;;;;;;5031030;28;20195;-76
2022/09/14 02:40:28;;;;;;;1.27;0.90;;;14.20;99.90;;;;;;5030282;28;20758;-78
2022/09/14 02:43:04;;;;;;;1.80;0.93;;;14.20;99.90;;;;;;5031436;28;20216;-77
2022/09/14 02:45:39;;;;;;;1.50;1.00;;;14.20;99.90;;;;;;5031534;28;20201;-78
2022/09/14 02:48:15;;;;;;;2.10;1.23;;;14.20;99.90;;;;;;5031258;28;20206;-76
2022/09/14 02:50:49;;;;;;;1.83;1.00;;;14.20;99.90;;;;;;5030470;28;20785;-77
2022/09/14 02:53:24;;;;;;;1.90;0.87;;;14.20;99.90;;;;;;5030987;28;20281;-77
2022/09/14 02:55:57;;;;;;;1.10;0.90;;;14.20;99.90;;;;;;5031221;28;20238;-77
2022/09/14 02:58:24;;;;;;;2.20;1.13;;;14.20;99.90;;;;;;5031623;28;20229;-77
2022/09/14 03:00:51;;;;;;;2.30;1.00;;;14.20;99.90;;;;;;5029781;28;20217;-77
2022/09/14 03:03:21;;;;;;;1.17;1.07;;;14.20;99.90;;;;;;5031052;28;20195;-77
2022/09/14 03:05:48;;;;;;;3.17;1.30;;;14.20;99.90;;;;;;5030697;28;20638;-76
2022/09/14 03:08:15;;;;;;;3.53;1.10;;;14.30;99.90;;;;;;5030248;28;20222;-77
2022/09/14 03:10:43;;;;;;;1.13;1.00;;;14.20;99.90;;;;;;5030459;28;20229;-77
2022/09/14 03:13:11;;;;;;;2.10;1.10;;;14.30;99.90;;;;;;5031153;28;20677;-77
2022/09/14 03:15:38;;;;;;;2.25;1.20;;;14.30;99.90;;;;;;5030011;28;20593;-78
2022/09/14 03:18:05;;;;;;;2.90;1.23;;;14.30;99.90;;;;;;5030634;28;20210;-77
2022/09/14 03:20:34;;;;;;;2.33;0.90;;;14.30;99.90;;;;;;5031195;28;20286;-76
2022/09/14 03:23:02;;;;;;;0.80;0.80;;;14.30;99.90;;;;;;5029508;28;20241;-77
2022/09/14 03:25:29;;;;;;;2.45;1.33;;;14.30;99.90;;;;;;5031076;28;20197;-76
2022/09/14 03:27:58;;;;;;;2.33;1.20;;;14.30;99.90;;;;;;5030260;28;20230;-76
2022/09/14 03:30:26;;;;;;;2.83;1.13;;;14.30;99.90;;;;;;5030345;28;20529;-77
2022/09/14 03:32:53;;;;;;;2.83;1.00;;;14.30;99.90;;;;;;5031015;28;20690;-76
2022/09/14 03:35:20;;;;;;;1.60;0.97;;;14.40;99.90;;;;;;5033845;28;20205;-76
2022/09/14 03:37:48;;;;;;;2.33;1.10;;;14.30;99.90;;;;;;5033892;28;20218;-77
2022/09/14 03:40:16;;;;;;;1.00;0.90;;;14.30;99.90;;;;;;5014723;28;20210;-76
2022/09/14 03:42:43;;;;;;;1.23;0.90;;;14.30;99.90;;;;;;5014162;28;20207;-77
2022/09/14 03:45:11;;;;;;;1.50;0.80;;;14.30;99.90;;;;;;5014641;28;20222;-76
2022/09/14 03:47:38;;;;;;;1.13;0.87;;;14.30;99.90;;;;;;5029518;28;20226;-77
2022/09/14 03:50:06;;;;;;;1.55;1.00;;;14.30;99.90;;;;;;5033892;28;20202;-78
2022/09/14 03:52:33;;;;;;;1.30;0.90;;;14.30;99.90;;;;;;5034036;28;20202;-76
2022/09/14 03:55:02;;;;;;;1.75;1.20;;;14.30;99.90;;;;;;5033106;28;20199;-77
2022/09/14 03:57:28;;;;;;;1.67;1.00;;;14.30;99.90;;;;;;5033293;28;20236;-78
2022/09/14 03:59:55;;;;;;;2.53;1.20;;;14.30;99.90;;;;;;5033934;28;20249;-77
2022/09/14 04:02:22;;;;;;;1.70;1.37;;;14.30;99.90;;;;;;5033646;28;20595;-78
2022/09/14 04:04:49;;;;;;;1.47;1.20;;;14.30;99.90;;;;;;5033344;28;20199;-76
2022/09/14 04:07:17;;;;;;;2.60;1.20;;;14.30;99.90;;;;;;5033814;28;20214;-76
2022/09/14 04:09:44;;;;;;;1.33;1.20;;;14.30;99.90;;;;;;5033265;28;20217;-77
2022/09/14 04:12:12;;;;;;;1.33;1.00;;;14.30;99.90;;;;;;5013261;28;20608;-77
2022/09/14 04:14:39;;;;;;;2.08;1.30;;;14.30;99.90;;;;;;5014063;28;20219;-78
2022/09/14 04:17:06;;;;;;;2.35;1.10;;;14.40;99.90;;;;;;5025738;28;20306;-78
2022/09/14 04:19:36;;;;;;;1.37;1.10;;;14.30;99.90;;;;;;5033327;28;20202;-77
2022/09/14 04:22:04;;;;;;;1.47;1.13;;;14.30;99.90;;;;;;5032755;28;20299;-77
2022/09/14 04:24:31;;;;;;;2.47;1.03;;;14.30;99.90;;;;;;5032831;28;20210;-78
2022/09/14 04:26:57;;;;;;;2.43;0.90;;;14.30;99.90;;;;;;5033036;28;20198;-78
2022/09/14 04:29:26;;;;;;;1.10;1.00;;;14.30;99.90;;;;;;5033640;28;20226;-76
2022/09/14 04:31:53;;;;;;;1.67;1.00;;;14.30;99.90;;;;;;5032031;28;20578;-78
2022/09/14 04:34:19;;;;;;;2.00;1.43;;;14.30;99.90;;;;;;5033867;28;20291;-77
2022/09/14 04:36:46;;;;;;;1.90;1.13;;;14.30;99.90;;;;;;5033020;28;20214;-78
2022/09/14 04:39:14;;;;;;;1.77;1.17;;;14.30;99.90;;;;;;5032735;28;20195;-78
2022/09/14 04:41:40;;;;;;;2.00;1.10;;;14.30;99.90;;;;;;5033466;28;20708;-79
2022/09/14 04:44:07;;;;;;;1.80;1.53;;;14.30;99.90;;;;;;5032348;28;21055;-78
2022/09/14 04:46:38;;;;;;;2.08;1.23;;;14.30;99.90;;;;;;5032665;28;20229;-78
2022/09/14 04:49:06;;;;;;;1.58;1.15;;;14.30;99.90;;;;;;5032753;28;20222;-78
2022/09/14 04:51:34;;;;;;;1.67;1.20;;;14.30;99.90;;;;;;5033107;28;20207;-78
2022/09/14 04:54:03;;;;;;;1.43;1.30;;;14.30;99.90;;;;;;5031554;28;20206;-77
2022/09/14 04:56:32;;;;;;;2.20;1.40;;;14.30;99.90;;;;;;5032984;28;20507;-78
2022/09/14 04:59:03;;;;;;;1.87;1.20;;;14.30;99.90;;;;;;5033055;28;20205;-78
2022/09/14 05:01:31;;;;;;;1.77;1.23;;;14.30;99.90;;;;;;5032620;28;20229;-78
2022/09/14 05:04:00;;;;;;;1.57;1.40;;;14.30;99.90;;;;;;5032623;28;20203;-77
2022/09/14 05:06:28;;;;;;;2.30;1.37;;;14.30;99.90;;;;;;5032290;28;20248;-77
2022/09/14 05:08:58;;;;;;;2.87;1.43;;;14.30;99.90;;;;;;5032544;28;20560;-78
2022/09/14 05:11:27;;;;;;;2.97;1.17;;;14.30;99.90;;;;;;5032663;28;20354;-78
2022/09/14 05:13:55;;;;;;;3.37;1.43;;;14.30;99.90;;;;;;5031275;28;20212;-77
2022/09/14 05:16:24;;;;;;;2.33;1.40;;;14.30;99.90;;;;;;5032122;28;20266;-77
2022/09/14 05:18:53;;;;;;;2.13;1.53;;;14.30;99.90;;;;;;5032548;28;20198;-77
2022/09/14 05:21:23;;;;;;;1.90;1.37;;;14.30;99.90;;;;;;5031664;28;20290;-77
2022/09/14 05:23:54;;;;;;;2.80;1.23;;;14.30;99.90;;;;;;5032253;28;20207;-77
2022/09/14 05:26:22;;;;;;;1.90;1.23;;;14.30;99.90;;;;;;5032854;28;20199;-77
2022/09/14 05:28:51;;;;;;;2.20;1.37;;;14.30;99.90;;;;;;5031521;28;20234;-77
2022/09/14 05:31:19;;;;;;;1.80;1.40;;;14.40;99.90;;;;;;5032298;28;20211;-78
2022/09/14 05:33:46;;;;;;;1.73;1.20;;;14.40;99.90;;;;;;5032358;28;20206;-77
2022/09/14 05:36:12;;;;;;;1.73;1.10;;;14.30;99.90;;;;;;5031466;28;20205;-77
2022/09/14 05:38:41;;;;;;;1.63;1.10;;;14.30;99.90;;;;;;5031465;28;20202;-77
2022/09/14 05:41:10;;;;;;;2.70;1.50;;;14.40;99.90;;;;;;5031981;28;20502;-77
2022/09/14 05:43:38;;;;;;;1.70;1.20;;;14.40;99.90;;;;;;5030131;28;20607;-77
2022/09/14 05:46:06;;;;;;;2.38;1.40;;;14.40;99.90;;;;;;5031411;28;20194;-77
2022/09/14 05:48:34;;;;;;;1.77;1.30;;;14.40;99.90;;;;;;5031795;28;20218;-77
2022/09/14 05:51:02;;;;;;;1.80;1.40;;;14.40;99.90;;;;;;5030506;28;20213;-78
2022/09/14 05:53:29;;;;;;;1.20;0.97;;;14.40;99.90;;;;;;5032123;28;20194;-77
2022/09/14 05:56:01;;;;;;;2.90;1.27;;;14.40;99.90;;;;;;5030457;28;20238;-77
2022/09/14 05:58:28;;;;;;;2.80;1.30;;;14.40;99.90;;;;;;5031425;28;20199;-78
2022/09/14 06:00:55;;;;;;;1.53;1.20;;;14.50;99.90;;;;;;5031864;28;20257;-77
2022/09/14 06:03:22;;;;;;;3.37;1.50;;;14.50;99.90;;;;;;5030550;28;20216;-78
2022/09/14 06:05:49;;;;;;;2.50;1.20;;;14.50;99.90;;;;;;5032275;28;20209;-77
2022/09/14 06:08:16;;;;;;;3.50;1.80;;;14.50;99.90;;;;;;5036313;28;20230;-78
2022/09/14 06:10:43;;;;;;;1.83;1.50;;;14.60;99.90;;;;;;5035031;28;20209;-77
2022/09/14 06:13:11;;;;;;;4.50;1.90;;;14.60;99.90;;;;;;5033677;28;20199;-78
2022/09/14 06:15:38;;;;;;;4.33;1.83;;;14.60;99.90;;;;;;5048103;28;20191;-77
2022/09/14 06:18:04;;;;;;;2.17;1.50;;;14.70;99.90;;;;;;5050061;28;20194;-77
2022/09/14 06:20:31;;;;;;;2.97;1.97;;;14.70;99.90;;;;;;5050541;28;20769;-77
2022/09/14 06:22:58;;;;;;;1.70;1.43;;;14.70;99.90;;;;;;5045128;28;20285;-77
2022/09/14 06:25:26;;;;;;;2.97;1.80;;;14.80;99.90;;;;;;5035056;28;20277;-77
2022/09/14 06:27:54;;;;;;;4.30;1.70;;;14.80;99.90;;;;;;5027205;28;20676;-77
2022/09/14 06:30:22;;;;;;;2.23;1.40;;;14.80;99.90;;;;;;5030242;28;20226;-77
2022/09/14 06:32:49;;;;;;;4.47;2.00;;;14.90;99.90;;;;;;5029363;28;20221;-77
2022/09/14 06:35:17;;;;;;;4.23;2.20;;;14.90;99.90;;;;;;5028618;28;20202;-77
2022/09/14 06:37:44;;;;;;;4.00;1.90;;;14.90;99.90;;;;;;5031482;28;20285;-76
2022/09/14 06:40:11;;;;;;;7.37;2.20;;;15.00;99.90;;;;;;5029173;28;20205;-78
2022/09/14 06:42:37;;;;;;;3.23;2.27;;;15.00;99.90;;;;;;5030229;28;20212;-77
2022/09/14 06:45:05;;;;;;;3.27;2.27;;;15.00;99.90;;;;;;5029358;28;20198;-76
2022/09/14 06:47:34;;;;;;;5.40;2.67;;;15.10;99.90;;;;;;5031425;28;20206;-77
2022/09/14 06:50:01;;;;;;;3.10;2.03;;;15.10;99.90;;;;;;5031118;28;20368;-77
2022/09/14 06:52:28;;;;;;;3.37;2.20;;;15.20;99.90;;;;;;5030008;28;20203;-76
2022/09/14 06:54:55;;;;;;;3.30;2.07;;;15.30;99.90;;;;;;5031216;28;20491;-76
2022/09/14 06:57:21;;;;;;;2.90;1.83;;;15.30;99.90;;;;;;5031164;28;20229;-77
2022/09/14 06:59:48;;;;;;;3.27;1.60;;;15.30;99.90;;;;;;5030154;28;20209;-76
2022/09/14 07:02:15;;;;;;;3.43;2.03;;;15.40;99.90;;;;;;5031630;28;20209;-77
2022/09/14 07:04:43;;;;;;;4.03;1.90;;;15.40;99.90;;;;;;5031134;28;20205;-77
2022/09/14 07:07:10;;;;;;;3.67;1.80;;;15.50;99.90;;;;;;5031968;28;20205;-77
2022/09/14 07:09:37;;;;;;;3.55;1.83;;;15.50;99.90;;;;;;5031354;28;20229;-78
2022/09/14 07:12:05;;;;;;;2.20;1.90;;;15.60;99.90;;;;;;5023681;28;20636;-77
2022/09/14 07:14:32;;;;;;;4.53;2.20;;;15.60;99.90;;;;;;5024118;28;20606;-76
2022/09/14 07:16:58;;;;;;;4.43;2.00;;;15.70;99.90;;;;;;5023382;28;20194;-77
2022/09/14 07:19:25;;;;;;;2.30;1.57;;;15.70;99.90;;;;;;5014934;28;20501;-76
2022/09/14 07:21:54;;;;;;;4.47;1.90;;;15.80;99.90;;;;;;5014726;28;20203;-76
2022/09/14 07:24:21;;;;;;;2.22;1.52;;;15.90;99.90;;;;;;5015428;28;20715;-76
2022/09/14 07:26:48;;;;;;;3.20;1.58;;;15.90;99.90;;;;;;5035392;28;20222;-76
2022/09/14 07:29:17;;;;;;;4.63;1.73;;;16.00;99.90;;;;;;5041699;28;20313;-77
2022/09/14 07:31:45;;;;;;;4.28;2.10;;;16.10;99.90;;;;;;5042327;28;20210;-76
2022/09/14 07:34:13;;;;;;;6.68;2.20;;;16.20;99.90;;;;;;5038887;28;20300;-76
2022/09/14 07:36:41;;;;;;;2.83;1.50;;;16.30;99.90;;;;;;5038439;28;20215;-76
2022/09/14 07:39:12;;;;;;;2.05;1.60;;;16.40;99.90;;;;;;5046509;28;20206;-77
2022/09/14 07:41:38;;;;;;;3.22;1.67;;;16.40;99.90;;;;;;5046347;28;20296;-77
2022/09/14 07:44:07;;;;;;;3.83;1.67;;;16.50;99.90;;;;;;5036706;28;20222;-77
2022/09/14 07:46:38;;;;;;;2.28;1.40;;;16.60;99.90;;;;;;5039372;28;20275;-77
2022/09/14 07:49:07;;;;;;;4.75;1.30;;;16.70;99.90;;;;;;5040698;28;20230;-77
2022/09/14 07:51:35;;;;;;;14.25;2.00;;;16.80;99.90;;;;;;5042495;28;20233;-77
2022/09/14 07:54:03;;;;;;;3.47;1.70;;;16.80;99.90;;;;;;5050132;28;20360;-76
2022/09/14 07:56:33;;;;;;;3.50;1.55;;;16.90;99.90;;;;;;5036885;28;20242;-77
2022/09/14 07:59:00;;;;;;;5.28;1.42;;;17.00;99.90;;;;;;5044136;28;20199;-77
2022/09/14 08:01:29;;;;;;;2.80;1.48;;;17.10;99.90;;;;;;5038580;28;20224;-77
2022/09/14 08:03:57;;;;;;;5.07;1.95;;;17.20;99.90;;;;;;5051962;28;20252;-77
2022/09/14 08:06:25;;;;;;;3.08;1.85;;;17.30;99.90;;;;;;5033389;28;20763;-78
2022/09/14 08:08:54;;;;;;;6.05;2.65;;;17.50;99.90;;;;;;5033177;28;20217;-77
2022/09/14 08:11:22;;;;;;;6.20;3.03;;;17.50;99.90;;;;;;5032977;28;20191;-78
2022/09/14 08:13:52;;;;;;;8.27;3.75;;;17.60;99.90;;;;;;5033661;28;20213;-77
2022/09/14 08:16:20;;;;;;;8.10;4.03;;;17.70;99.90;;;;;;5033781;28;20187;-77
2022/09/14 08:18:47;;;;;;;6.43;3.60;;;17.80;99.90;;;;;;5032182;28;20822;-77
2022/09/14 08:21:16;;;;;;;6.22;2.97;;;17.80;99.90;;;;;;5033512;28;20190;-77
2022/09/14 08:23:44;;;;;;;8.10;2.88;;;17.90;99.90;;;;;;5032586;28;20232;-76
2022/09/14 08:26:12;;;;;;;6.78;2.55;;;18.00;99.90;;;;;;5033013;28;20508;-77
2022/09/14 08:28:40;;;;;;;5.25;2.63;;;18.10;99.90;;;;;;5032890;28;20230;-78
2022/09/14 08:31:10;;;;;;;7.32;3.08;;;18.20;99.90;;;;;;5031735;28;20210;-77
2022/09/14 08:33:39;;;;;;;5.22;2.00;;;18.30;99.90;;;;;;5032670;28;20190;-78
2022/09/14 08:36:08;;;;;;;4.93;2.22;;;18.30;99.90;;;;;;5020193;28;20218;-77
2022/09/14 08:38:35;;;;;;;4.15;1.48;;;18.30;99.90;;;;;;5022823;28;20195;-76
2022/09/14 08:41:12;;;;;;;2.55;1.17;;;18.40;99.90;;;;;;5026524;28;20669;-77
2022/09/14 08:43:39;;;;;;;2.47;1.10;;;18.40;99.90;;;;;;5023285;28;20246;-77
2022/09/14 08:46:14;;;;;;;1.98;0.90;;;18.50;99.90;;;;;;5025372;28;20208;-77
2022/09/14 08:48:46;;;;;;;2.25;1.10;;;18.50;99.90;;;;;;5020911;28;20214;-77
2022/09/14 08:51:13;;;;;;;2.47;1.30;;;18.60;99.90;;;;;;5021018;28;20622;-77
2022/09/14 08:53:41;;;;;;;4.30;1.80;;;18.60;99.90;;;;;;5023017;28;20210;-77
2022/09/14 08:56:14;;;;;;;7.15;1.40;;;18.70;99.90;;;;;;5045081;28;20664;-77
2022/09/14 08:58:52;;;;;;;2.38;1.15;;;18.70;99.90;;;;;;5047955;28;20223;-76
2022/09/14 09:01:29;;;;;;;2.60;0.95;;;18.70;99.90;;;;;;5052815;28;20201;-77
2022/09/14 09:04:13;;;;;;;5.07;1.75;;;18.70;99.90;;;;;;5052824;28;20198;-77
2022/09/14 09:06:46;;;;;;;3.13;1.17;;;18.80;99.90;;;;;;5035755;28;20202;-77
2022/09/14 09:09:22;;;;;;;3.53;1.20;;;18.70;99.90;;;;;;5032352;28;20238;-77
2022/09/14 09:11:51;;;;;;;4.03;1.63;;;18.80;99.90;;;;;;5032933;28;20281;-76
2022/09/14 09:14:27;;;;;;;4.35;1.42;;;18.80;99.90;;;;;;5031445;28;20215;-77
2022/09/14 09:16:58;;;;;;;5.47;1.58;;;18.90;99.90;;;;;;5032673;28;20479;-76
2022/09/14 09:19:29;;;;;;;5.10;1.52;;;18.90;99.90;;;;;;5032214;28;20202;-76
2022/09/14 09:21:57;;;;;;;4.15;1.77;;;19.00;99.90;;;;;;5034290;28;20190;-77
2022/09/14 09:24:39;;;;;;;3.67;1.42;;;19.10;99.90;;;;;;5032790;28;20203;-77
2022/09/14 09:27:11;;;;;;;5.88;1.75;;;19.20;97.80;;;;;;5022783;28;20206;-76
2022/09/14 09:29:38;;;;;;;6.93;1.58;;;19.40;99.90;;;;;;5024998;28;20237;-76
2022/09/14 09:32:08;;;;;;;5.25;1.38;;;19.40;78.30;;;;;;5026511;28;20199;-77
2022/09/14 09:34:35;;;;;;;7.72;2.50;;;19.50;95.90;;;;;;5017949;28;20191;-77
2022/09/14 09:37:02;;;;;;;4.47;1.70;;;19.60;44.10;;;;;;5022310;28;20210;-77
2022/09/14 09:39:31;;;;;;;3.80;1.40;;;19.70;57.10;;;;;;5031179;28;20310;-77
2022/09/14 09:42:01;;;;;;;3.42;1.35;;;19.80;30.00;;;;;;5030279;28;20561;-76
2022/09/14 09:44:28;;;;;;;5.63;1.58;;;19.90;31.90;;;;;;5027520;28;20195;-77
2022/09/14 09:46:58;;;;;;;4.10;1.50;;;19.90;1.00;;;;;;5021544;28;20225;-77
2022/09/14 09:49:31;;;;;;;3.65;1.33;;;20.00;1.00;;;;;;5028673;28;20698;-78
2022/09/14 09:52:07;;;;;;;3.17;1.30;;;20.30;1.00;;;;;;5011600;28;20191;-76
2022/09/14 09:54:34;;;;;;;3.67;1.13;;;20.70;1.00;;;;;;5014251;28;20195;-77
2022/09/14 09:57:04;;;;;;;4.93;2.33;;;21.00;1.00;;;;;;5024194;28;20235;-77
2022/09/14 09:59:35;;;;;;;2.38;0.98;;;21.30;1.00;;;;;;5018843;28;20238;-78
2022/09/14 10:02:22;;;;;;;2.88;1.10;;;21.50;1.00;;;;;;5027804;28;20217;-77
2022/09/14 10:05:21;;;;;;;5.97;1.50;;;21.70;1.00;;;;;;5012009;28;20513;-77
2022/09/14 10:07:55;;;;;;;3.85;1.05;;;21.70;1.00;;;;;;5029094;28;20202;-78
2022/09/14 10:10:26;;;;;;;4.07;1.00;;;21.60;1.00;;;;;;5018237;28;20222;-78
2022/09/14 10:12:56;;;;;;;3.88;1.40;;;21.80;99.90;;;;;;5024732;28;20218;-78
2022/09/14 10:18:08;;;;;;;1.75;0.90;;;21.50;1.00;;;;;;5031218;28;20234;-79
2022/09/14 10:20:38;;;;;;;3.17;1.10;;;21.60;1.00;;;;;;5030541;28;20195;-79
2022/09/14 10:23:24;;;;;;;4.50;1.25;;;21.70;1.00;;;;;;5029896;28;20270;-79
2022/09/14 10:25:53;;;;;;;2.22;1.13;;;21.70;91.10;;;;;;5010636;28;20584;-79
2022/09/14 10:28:23;;;;;;;3.35;1.27;;;21.70;1.00;;;;;;5010825;28;20213;-78
2022/09/14 10:30:54;;;;;;;2.67;1.10;;;21.80;1.00;;;;;;5010282;28;20222;-78
2022/09/14 10:33:22;;;;;;;1.75;0.75;;;22.10;99.90;;;;;;5010992;28;20588;-78
2022/09/14 10:35:58;;;;;;;3.60;1.00;;;22.30;1.00;;;;;;5021707;28;20253;-79
2022/09/14 10:38:31;;;;;;;4.68;1.17;;;22.50;1.00;;;;;;5030121;28;20206;-78
2022/09/14 10:41:10;;;;;;;4.75;1.20;;;22.80;99.90;;;;;;5031024;28;20197;-78
2022/09/14 10:43:51;;;;;;;4.88;1.13;;;22.90;99.90;;;;;;5033807;28;20202;-79
2022/09/14 10:46:21;;;;;;;4.40;0.98;;;23.20;99.90;;;;;;5031803;28;20214;-79
2022/09/14 10:49:10;;;;;;;1.30;0.90;;;23.20;99.90;;;;;;5030834;28;20204;-77
2022/09/14 10:51:49;;;;;;;7.15;1.30;;;23.20;54.90;;;;;;5018733;28;20359;-77
2022/09/14 10:54:38;;;;;;;3.22;1.10;;;23.30;1.00;;;;;;5026019;28;20190;-77
2022/09/14 10:57:16;;;;;;;2.85;0.98;;;23.40;99.90;;;;;;5034260;28;20253;-77
2022/09/14 10:59:51;;;;;;;3.80;1.23;;;23.20;99.90;;;;;;5023934;28;20191;-77
2022/09/14 11:02:48;;;;;;;3.83;0.93;;;23.10;1.00;;;;;;5015080;28;20199;-78
2022/09/14 11:05:21;;;;;;;2.33;1.00;;;23.10;99.90;;;;;;5000554;28;20207;-77
2022/09/14 11:08:04;;;;;;;2.38;1.30;;;23.00;99.90;;;;;;5014848;28;20195;-78
2022/09/14 11:10:40;;;;;;;3.25;1.15;;;22.80;1.00;;;;;;5014632;28;20519;-76
2022/09/14 11:13:26;;;;;;;4.82;1.38;;;22.70;1.00;;;;;;5014687;28;20191;-76
2022/09/14 11:16:01;;;;;;;3.45;1.10;;;22.60;1.00;;;;;;5014673;28;20191;-77
2022/09/14 11:18:38;;;;;;;1.77;0.80;;;22.40;1.00;;;;;;5015968;28;20641;-78
2022/09/14 11:21:16;;;;;;;5.28;1.23;;;22.40;99.90;;;;;;5033664;28;20190;-77
2022/09/14 11:23:49;;;;;;;3.50;1.10;;;22.60;99.90;;;;;;5035002;28;20722;-77
2022/09/14 11:26:22;;;;;;;3.35;1.13;;;23.00;99.90;;;;;;5025556;28;20764;-77
2022/09/14 11:28:53;;;;;;;3.10;1.17;;;23.40;1.00;;;;;;5023952;28;20226;-77
2022/09/14 11:31:24;;;;;;;4.07;1.20;;;23.70;1.00;;;;;;5033550;28;20288;-77
2022/09/14 11:33:57;;;;;;;2.22;1.00;;;24.00;1.00;;;;;;5032953;28;20202;-77
2022/09/14 11:36:28;;;;;;;2.85;0.90;;;23.80;1.00;;;;;;5034905;28;20597;-79
2022/09/14 11:39:01;;;;;;;4.10;1.50;;;23.70;99.90;;;;;;5028728;28;20227;-78
2022/09/14 11:41:32;;;;;;;3.75;1.15;;;23.60;1.00;;;;;;5033751;28;20198;-78
2022/09/14 11:44:04;;;;;;;2.78;1.30;;;23.40;99.90;;;;;;5037854;28;20492;-78
2022/09/14 11:46:34;;;;;;;3.85;1.05;;;23.00;1.00;;;;;;5038759;28;20195;-79
2022/09/14 11:49:11;;;;;;;3.05;1.00;;;22.90;1.00;;;;;;5038043;28;20225;-77
2022/09/14 11:51:44;;;;;;;3.30;1.00;;;22.70;1.00;;;;;;5037178;28;20182;-78
2022/09/14 11:54:18;;;;;;;2.92;1.15;;;22.60;1.00;;;;;;5035461;28;20451;-78
2022/09/14 11:56:48;;;;;;;2.20;1.00;;;22.60;1.00;;;;;;5034259;28;20238;-79
2022/09/14 11:59:47;;;;;;;2.03;0.70;;;22.70;1.00;;;;;;5035419;28;20564;-78
2022/09/14 12:02:53;;;;;;;2.90;1.05;;;22.70;1.00;;;;;;5033157;28;20216;-79
2022/09/14 12:05:34;;;;;;;1.08;0.63;;;22.70;99.90;;;;;;5034093;28;20232;-78
2022/09/14 12:08:24;;;;;;;3.78;1.30;;;22.70;1.00;;;;;;5034895;28;20301;-78
2022/09/14 12:11:28;;;;;;;1.70;0.90;;;22.60;1.00;;;;;;5026923;28;20230;-77
2022/09/14 12:14:28;;;;;;;4.65;0.90;;;22.60;1.00;;;;;;5021085;28;20286;-79
2022/09/14 12:17:06;;;;;;;6.20;1.08;;;22.60;99.90;;;;;;5034826;28;20230;-77
2022/09/14 12:19:34;;;;;;;4.05;1.17;;;22.60;1.00;;;;;;5033979;28;20301;-77
2022/09/14 12:22:19;;;;;;;3.97;1.17;;;22.60;99.90;;;;;;5034603;28;20202;-79
2022/09/14 12:24:56;;;;;;;4.63;0.88;;;22.50;1.00;;;;;;5034201;28;20209;-77
2022/09/14 12:27:30;;;;;;;2.97;1.00;;;22.50;1.00;;;;;;5036222;28;20190;-78
2022/09/14 12:29:57;;;;;;;3.42;1.10;;;22.30;1.00;;;;;;5035947;28;20226;-76
2022/09/14 12:32:28;;;;;;;3.90;1.05;;;22.20;1.00;;;;;;5034974;28;20267;-79
2022/09/14 12:35:28;;;;;;;3.85;1.20;;;22.10;99.90;;;;;;5035249;28;20205;-78
2022/09/14 12:37:55;;;;;;;3.55;1.17;;;22.00;99.90;;;;;;4993121;28;20214;-77
2022/09/14 12:40:35;;;;;;;2.55;1.23;;;21.90;1.00;;;;;;5036265;28;20187;-78
2022/09/14 12:43:45;;;;;;;5.90;1.50;;;21.90;99.90;;;;;;5036285;28;20664;-78
2022/09/14 12:46:37;;;;;;;2.70;1.02;;;21.90;99.90;;;;;;5017441;28;20219;-77
2022/09/14 12:49:15;;;;;;;1.80;0.98;;;21.90;1.00;;;;;;5016215;28;20198;-78
2022/09/14 12:51:47;;;;;;;5.13;1.55;;;22.00;1.00;;;;;;5016953;28;20273;-77
2022/09/14 12:54:24;;;;;;;3.53;0.95;;;22.10;1.00;;;;;;5036020;28;20678;-78
2022/09/14 12:57:17;;;;;;;2.50;1.00;;;22.00;1.00;;;;;;5033735;28;20236;-78
2022/09/14 12:59:52;;;;;;;2.60;1.05;;;22.00;38.20;;;;;;5033146;28;20591;-79
2022/09/14 13:02:47;;;;;;;2.28;1.00;;;22.00;1.00;;;;;;5033748;28;20289;-78
2022/09/14 13:05:15;;;;;;;5.03;1.08;;;22.00;99.90;;;;;;5032786;28;20225;-77
2022/09/14 13:07:43;;;;;;;5.35;1.50;;;21.90;99.90;;;;;;5033634;28;20198;-78
2022/09/14 13:10:19;;;;;;;4.18;1.58;;;21.90;99.90;;;;;;5033490;28;20309;-77
2022/09/14 13:12:48;;;;;;;3.95;1.55;;;21.90;99.90;;;;;;5045272;28;20182;-78